sensor_id;sensor_type;location;lat;lon;timestamp;P1;durP1;ratioP1;P2;durP2;ratioP2
42886;SDS011;29032;56.028;92.904;2023-04-08T00:05:13;2.97;;;1.13;;
42886;SDS011;29032;56.028;92.904;2023-04-08T00:10:15;2.97;;;1.20;;
42886;SDS011;29032;56.028;92.904;2023-04-08T00:15:17;1.43;;;1.10;;
42886;SDS011;29032;56.028;92.904;2023-04-08T00:20:21;3.03;;;1.50;;
42886;SDS011;29032;56.028;92.904;2023-04-08T00:25:23;2.30;;;1.00;;
42886;SDS011;29032;56.028;92.904;2023-04-08T00:30:25;2.10;;;1.30;;
42886;SDS011;29032;56.028;92.904;2023-04-08T00:35:29;0.73;;;0.73;;
42886;SDS011;29032;56.028;92.904;2023-04-08T00:40:31;1.20;;;0.80;;
42886;SDS011;29032;56.028;92.904;2023-04-08T00:51:13;1.80;;;1.10;;
42886;SDS011;29032;56.028;92.904;2023-04-08T00:56:15;1.70;;;1.07;;
42886;SDS011;29032;56.028;92.904;2023-04-08T01:01:39;2.67;;;1.40;;
42886;SDS011;29032;56.028;92.904;2023-04-08T01:07:06;2.53;;;1.40;;
42886;SDS011;29032;56.028;92.904;2023-04-08T01:12:17;2.30;;;1.20;;
42886;SDS011;29032;56.028;92.904;2023-04-08T01:17:22;2.13;;;1.30;;
42886;SDS011;29032;56.028;92.904;2023-04-08T01:22:28;3.13;;;1.07;;
42886;SDS011;29032;56.028;92.904;2023-04-08T01:27:57;6.47;;;2.03;;
42886;SDS011;29032;56.028;92.904;2023-04-08T01:33:00;3.70;;;2.03;;
42886;SDS011;29032;56.028;92.904;2023-04-08T01:38:04;4.83;;;2.07;;
42886;SDS011;29032;56.028;92.904;2023-04-08T01:43:10;6.00;;;2.03;;
42886;SDS011;29032;56.028;92.904;2023-04-08T01:48:33;3.07;;;1.63;;
42886;SDS011;29032;56.028;92.904;2023-04-08T01:53:38;2.57;;;1.30;;
42886;SDS011;29032;56.028;92.904;2023-04-08T01:58:42;5.27;;;1.63;;
42886;SDS011;29032;56.028;92.904;2023-04-08T02:03:49;4.60;;;1.90;;
42886;SDS011;29032;56.028;92.904;2023-04-08T02:08:53;2.67;;;1.37;;
42886;SDS011;29032;56.028;92.904;2023-04-08T02:13:57;3.57;;;1.80;;
42886;SDS011;29032;56.028;92.904;2023-04-08T02:18:59;3.20;;;1.83;;
42886;SDS011;29032;56.028;92.904;2023-04-08T02:24:08;2.67;;;1.67;;
42886;SDS011;29032;56.028;92.904;2023-04-08T02:29:31;3.33;;;1.70;;
42886;SDS011;29032;56.028;92.904;2023-04-08T02:34:37;3.92;;;2.00;;
42886;SDS011;29032;56.028;92.904;2023-04-08T02:39:40;2.97;;;2.03;;
42886;SDS011;29032;56.028;92.904;2023-04-08T02:44:46;6.20;;;2.57;;
42886;SDS011;29032;56.028;92.904;2023-04-08T02:49:48;3.90;;;2.17;;
42886;SDS011;29032;56.028;92.904;2023-04-08T02:54:50;5.67;;;2.53;;
42886;SDS011;29032;56.028;92.904;2023-04-08T02:59:54;4.17;;;1.80;;
42886;SDS011;29032;56.028;92.904;2023-04-08T03:04:56;4.93;;;2.13;;
42886;SDS011;29032;56.028;92.904;2023-04-08T03:09:58;5.13;;;2.30;;
42886;SDS011;29032;56.028;92.904;2023-04-08T03:20:22;4.37;;;1.67;;
42886;SDS011;29032;56.028;92.904;2023-04-08T03:25:24;2.97;;;1.87;;
42886;SDS011;29032;56.028;92.904;2023-04-08T03:30:49;4.07;;;1.97;;
42886;SDS011;29032;56.028;92.904;2023-04-08T03:35:52;4.33;;;2.27;;
42886;SDS011;29032;56.028;92.904;2023-04-08T03:41:12;6.43;;;2.40;;
42886;SDS011;29032;56.028;92.904;2023-04-08T03:46:16;6.30;;;2.70;;
42886;SDS011;29032;56.028;92.904;2023-04-08T03:51:18;4.43;;;2.33;;
42886;SDS011;29032;56.028;92.904;2023-04-08T03:56:20;4.10;;;2.20;;
42886;SDS011;29032;56.028;92.904;2023-04-08T04:06:43;6.93;;;2.73;;
42886;SDS011;29032;56.028;92.904;2023-04-08T04:11:46;5.00;;;2.73;;
42886;SDS011;29032;56.028;92.904;2023-04-08T04:16:49;2.70;;;1.93;;
42886;SDS011;29032;56.028;92.904;2023-04-08T04:21:51;2.87;;;1.60;;
42886;SDS011;29032;56.028;92.904;2023-04-08T04:26:53;4.83;;;1.93;;
42886;SDS011;29032;56.028;92.904;2023-04-08T04:31:57;4.03;;;2.13;;
42886;SDS011;29032;56.028;92.904;2023-04-08T04:36:59;4.53;;;1.90;;
42886;SDS011;29032;56.028;92.904;2023-04-08T04:42:01;3.97;;;2.17;;
42886;SDS011;29032;56.028;92.904;2023-04-08T04:47:04;3.43;;;2.07;;
42886;SDS011;29032;56.028;92.904;2023-04-08T04:52:06;5.37;;;2.30;;
42886;SDS011;29032;56.028;92.904;2023-04-08T04:57:08;3.77;;;2.00;;
42886;SDS011;29032;56.028;92.904;2023-04-08T05:02:12;3.60;;;2.07;;
42886;SDS011;29032;56.028;92.904;2023-04-08T05:07:14;3.27;;;2.13;;
42886;SDS011;29032;56.028;92.904;2023-04-08T05:12:16;3.90;;;2.07;;
42886;SDS011;29032;56.028;92.904;2023-04-08T05:17:19;3.17;;;1.80;;
42886;SDS011;29032;56.028;92.904;2023-04-08T05:22:21;3.83;;;2.20;;
42886;SDS011;29032;56.028;92.904;2023-04-08T05:27:42;5.57;;;2.17;;
42886;SDS011;29032;56.028;92.904;2023-04-08T05:32:45;4.40;;;1.90;;
42886;SDS011;29032;56.028;92.904;2023-04-08T05:37:47;5.40;;;2.60;;
42886;SDS011;29032;56.028;92.904;2023-04-08T05:42:49;3.67;;;2.10;;
42886;SDS011;29032;56.028;92.904;2023-04-08T05:47:53;5.23;;;2.60;;
42886;SDS011;29032;56.028;92.904;2023-04-08T05:52:55;3.70;;;2.20;;
42886;SDS011;29032;56.028;92.904;2023-04-08T05:57:57;6.90;;;3.30;;
42886;SDS011;29032;56.028;92.904;2023-04-08T06:08:48;6.80;;;2.70;;
42886;SDS011;29032;56.028;92.904;2023-04-08T06:13:50;6.57;;;2.70;;
42886;SDS011;29032;56.028;92.904;2023-04-08T06:19:12;3.37;;;2.20;;
42886;SDS011;29032;56.028;92.904;2023-04-08T06:24:32;7.03;;;2.70;;
42886;SDS011;29032;56.028;92.904;2023-04-08T06:29:34;5.27;;;2.37;;
42886;SDS011;29032;56.028;92.904;2023-04-08T06:34:38;5.83;;;2.80;;
42886;SDS011;29032;56.028;92.904;2023-04-08T06:39:40;7.27;;;2.70;;
42886;SDS011;29032;56.028;92.904;2023-04-08T06:44:42;6.43;;;2.47;;
42886;SDS011;29032;56.028;92.904;2023-04-08T06:49:45;6.93;;;2.57;;
42886;SDS011;29032;56.028;92.904;2023-04-08T06:55:06;4.27;;;2.23;;
42886;SDS011;29032;56.028;92.904;2023-04-08T07:00:09;3.03;;;2.07;;
42886;SDS011;29032;56.028;92.904;2023-04-08T07:05:13;5.43;;;2.30;;
42886;SDS011;29032;56.028;92.904;2023-04-08T07:10:15;6.03;;;2.37;;
42886;SDS011;29032;56.028;92.904;2023-04-08T07:21:16;10.43;;;2.47;;
42886;SDS011;29032;56.028;92.904;2023-04-08T07:31:38;6.03;;;2.87;;
42886;SDS011;29032;56.028;92.904;2023-04-08T07:36:42;8.77;;;2.30;;
42886;SDS011;29032;56.028;92.904;2023-04-08T07:41:44;3.53;;;2.27;;
42886;SDS011;29032;56.028;92.904;2023-04-08T07:46:46;5.60;;;2.20;;
42886;SDS011;29032;56.028;92.904;2023-04-08T07:51:49;7.10;;;2.90;;
42886;SDS011;29032;56.028;92.904;2023-04-08T07:56:51;5.40;;;2.27;;
42886;SDS011;29032;56.028;92.904;2023-04-08T08:01:53;4.83;;;2.37;;
42886;SDS011;29032;56.028;92.904;2023-04-08T08:06:57;4.60;;;2.40;;
42886;SDS011;29032;56.028;92.904;2023-04-08T08:11:59;4.53;;;2.10;;
42886;SDS011;29032;56.028;92.904;2023-04-08T08:17:02;6.10;;;2.60;;
42886;SDS011;29032;56.028;92.904;2023-04-08T08:22:06;2.80;;;2.30;;
42886;SDS011;29032;56.028;92.904;2023-04-08T08:27:09;6.97;;;2.67;;
42886;SDS011;29032;56.028;92.904;2023-04-08T08:32:29;3.77;;;2.27;;
42886;SDS011;29032;56.028;92.904;2023-04-08T08:37:50;3.47;;;2.27;;
42886;SDS011;29032;56.028;92.904;2023-04-08T08:42:52;3.87;;;2.20;;
42886;SDS011;29032;56.028;92.904;2023-04-08T08:47:55;5.43;;;2.23;;
42886;SDS011;29032;56.028;92.904;2023-04-08T08:52:58;5.50;;;2.47;;
42886;SDS011;29032;56.028;92.904;2023-04-08T08:58:19;3.70;;;2.40;;
42886;SDS011;29032;56.028;92.904;2023-04-08T09:03:21;3.87;;;2.37;;
42886;SDS011;29032;56.028;92.904;2023-04-08T09:08:26;5.60;;;2.67;;
42886;SDS011;29032;56.028;92.904;2023-04-08T09:13:33;6.63;;;2.70;;
42886;SDS011;29032;56.028;92.904;2023-04-08T09:24:09;3.50;;;2.53;;
42886;SDS011;29032;56.028;92.904;2023-04-08T09:29:28;8.00;;;3.17;;
42886;SDS011;29032;56.028;92.904;2023-04-08T09:39:51;7.43;;;2.87;;
42886;SDS011;29032;56.028;92.904;2023-04-08T09:44:53;6.10;;;2.90;;
42886;SDS011;29032;56.028;92.904;2023-04-08T09:49:57;6.73;;;3.70;;
42886;SDS011;29032;56.028;92.904;2023-04-08T09:55:07;5.37;;;2.97;;
42886;SDS011;29032;56.028;92.904;2023-04-08T10:00:10;6.73;;;3.27;;
42886;SDS011;29032;56.028;92.904;2023-04-08T10:10:40;5.73;;;3.70;;
42886;SDS011;29032;56.028;92.904;2023-04-08T10:15:43;7.77;;;3.73;;
42886;SDS011;29032;56.028;92.904;2023-04-08T10:20:45;8.97;;;3.30;;
42886;SDS011;29032;56.028;92.904;2023-04-08T10:26:10;10.23;;;3.67;;
42886;SDS011;29032;56.028;92.904;2023-04-08T10:31:31;6.23;;;3.13;;
42886;SDS011;29032;56.028;92.904;2023-04-08T10:36:51;5.20;;;3.80;;
42886;SDS011;29032;56.028;92.904;2023-04-08T10:41:56;6.10;;;2.90;;
42886;SDS011;29032;56.028;92.904;2023-04-08T10:46:58;8.27;;;3.43;;
42886;SDS011;29032;56.028;92.904;2023-04-08T10:52:08;9.13;;;3.63;;
42886;SDS011;29032;56.028;92.904;2023-04-08T10:57:12;11.77;;;4.23;;
42886;SDS011;29032;56.028;92.904;2023-04-08T11:02:15;13.73;;;3.60;;
42886;SDS011;29032;56.028;92.904;2023-04-08T11:07:19;7.53;;;3.73;;
42886;SDS011;29032;56.028;92.904;2023-04-08T11:17:43;10.10;;;4.63;;
42886;SDS011;29032;56.028;92.904;2023-04-08T11:22:46;11.97;;;4.30;;
42886;SDS011;29032;56.028;92.904;2023-04-08T11:27:50;8.53;;;4.20;;
42886;SDS011;29032;56.028;92.904;2023-04-08T11:32:52;11.13;;;4.57;;
42886;SDS011;29032;56.028;92.904;2023-04-08T11:37:54;8.77;;;4.60;;
42886;SDS011;29032;56.028;92.904;2023-04-08T11:42:58;8.83;;;5.23;;
42886;SDS011;29032;56.028;92.904;2023-04-08T11:48:09;9.03;;;4.60;;
42886;SDS011;29032;56.028;92.904;2023-04-08T11:53:15;8.93;;;4.43;;
42886;SDS011;29032;56.028;92.904;2023-04-08T11:58:19;7.30;;;4.27;;
42886;SDS011;29032;56.028;92.904;2023-04-08T12:08:54;8.67;;;3.80;;
42886;SDS011;29032;56.028;92.904;2023-04-08T12:13:58;12.57;;;4.47;;
42886;SDS011;29032;56.028;92.904;2023-04-08T12:19:18;7.90;;;4.70;;
42886;SDS011;29032;56.028;92.904;2023-04-08T12:30:18;15.15;;;5.10;;
42886;SDS011;29032;56.028;92.904;2023-04-08T12:35:20;12.50;;;6.03;;
42886;SDS011;29032;56.028;92.904;2023-04-08T12:40:41;14.23;;;5.60;;
42886;SDS011;29032;56.028;92.904;2023-04-08T12:45:44;10.87;;;4.73;;
42886;SDS011;29032;56.028;92.904;2023-04-08T12:50:46;11.90;;;5.20;;
42886;SDS011;29032;56.028;92.904;2023-04-08T12:55:48;13.43;;;5.40;;
42886;SDS011;29032;56.028;92.904;2023-04-08T13:00:52;10.17;;;4.97;;
42886;SDS011;29032;56.028;92.904;2023-04-08T13:05:54;11.07;;;4.50;;
42886;SDS011;29032;56.028;92.904;2023-04-08T13:10:56;14.40;;;5.27;;
42886;SDS011;29032;56.028;92.904;2023-04-08T13:16:00;10.63;;;4.83;;
42886;SDS011;29032;56.028;92.904;2023-04-08T13:21:20;13.53;;;5.33;;
42886;SDS011;29032;56.028;92.904;2023-04-08T13:26:22;17.60;;;6.13;;
42886;SDS011;29032;56.028;92.904;2023-04-08T13:31:25;17.63;;;5.60;;
42886;SDS011;29032;56.028;92.904;2023-04-08T13:36:46;18.23;;;7.07;;
42886;SDS011;29032;56.028;92.904;2023-04-08T13:41:48;35.10;;;15.47;;
42886;SDS011;29032;56.028;92.904;2023-04-08T13:47:10;63.17;;;29.13;;
42886;SDS011;29032;56.028;92.904;2023-04-08T13:52:12;42.07;;;18.57;;
42886;SDS011;29032;56.028;92.904;2023-04-08T13:57:14;28.17;;;13.37;;
42886;SDS011;29032;56.028;92.904;2023-04-08T14:07:38;16.10;;;7.23;;
42886;SDS011;29032;56.028;92.904;2023-04-08T14:12:40;16.33;;;7.50;;
42886;SDS011;29032;56.028;92.904;2023-04-08T14:17:44;16.80;;;8.40;;
42886;SDS011;29032;56.028;92.904;2023-04-08T14:28:06;14.27;;;8.60;;
42886;SDS011;29032;56.028;92.904;2023-04-08T14:33:09;16.90;;;6.93;;
42886;SDS011;29032;56.028;92.904;2023-04-08T14:38:29;19.20;;;9.83;;
42886;SDS011;29032;56.028;92.904;2023-04-08T14:43:31;15.80;;;6.63;;
42886;SDS011;29032;56.028;92.904;2023-04-08T14:48:35;11.93;;;4.57;;
42886;SDS011;29032;56.028;92.904;2023-04-08T14:58:57;10.40;;;4.70;;
42886;SDS011;29032;56.028;92.904;2023-04-08T15:04:01;9.90;;;3.90;;
42886;SDS011;29032;56.028;92.904;2023-04-08T15:09:03;8.50;;;2.90;;
42886;SDS011;29032;56.028;92.904;2023-04-08T15:14:05;5.27;;;3.03;;
42886;SDS011;29032;56.028;92.904;2023-04-08T15:19:08;8.17;;;3.77;;
42886;SDS011;29032;56.028;92.904;2023-04-08T15:24:29;9.97;;;3.63;;
42886;SDS011;29032;56.028;92.904;2023-04-08T15:29:31;8.30;;;3.90;;
42886;SDS011;29032;56.028;92.904;2023-04-08T15:34:52;4.30;;;2.40;;
42886;SDS011;29032;56.028;92.904;2023-04-08T15:40:13;4.70;;;2.33;;
42886;SDS011;29032;56.028;92.904;2023-04-08T15:45:16;7.23;;;3.30;;
42886;SDS011;29032;56.028;92.904;2023-04-08T15:50:19;10.60;;;4.00;;
42886;SDS011;29032;56.028;92.904;2023-04-08T16:00:41;10.03;;;3.50;;
42886;SDS011;29032;56.028;92.904;2023-04-08T16:05:45;10.20;;;5.30;;
42886;SDS011;29032;56.028;92.904;2023-04-08T16:16:07;6.97;;;3.63;;
42886;SDS011;29032;56.028;92.904;2023-04-08T16:21:13;9.93;;;4.03;;
42886;SDS011;29032;56.028;92.904;2023-04-08T16:26:15;10.10;;;4.30;;
42886;SDS011;29032;56.028;92.904;2023-04-08T16:31:17;9.87;;;4.07;;
42886;SDS011;29032;56.028;92.904;2023-04-08T16:36:21;8.27;;;3.40;;
42886;SDS011;29032;56.028;92.904;2023-04-08T16:41:23;8.23;;;2.93;;
42886;SDS011;29032;56.028;92.904;2023-04-08T16:46:25;6.63;;;3.07;;
42886;SDS011;29032;56.028;92.904;2023-04-08T16:57:07;5.57;;;3.67;;
42886;SDS011;29032;56.028;92.904;2023-04-08T17:02:09;6.43;;;3.07;;
42886;SDS011;29032;56.028;92.904;2023-04-08T17:07:29;8.43;;;3.70;;
42886;SDS011;29032;56.028;92.904;2023-04-08T17:12:33;9.17;;;2.93;;
42886;SDS011;29032;56.028;92.904;2023-04-08T17:17:35;8.80;;;2.30;;
42886;SDS011;29032;56.028;92.904;2023-04-08T17:22:55;5.23;;;2.53;;
42886;SDS011;29032;56.028;92.904;2023-04-08T17:27:58;4.67;;;2.40;;
42886;SDS011;29032;56.028;92.904;2023-04-08T17:33:00;5.60;;;2.37;;
42886;SDS011;29032;56.028;92.904;2023-04-08T17:43:43;10.63;;;3.22;;
42886;SDS011;29032;56.028;92.904;2023-04-08T17:48:45;7.27;;;3.00;;
42886;SDS011;29032;56.028;92.904;2023-04-08T17:53:47;4.60;;;2.93;;
42886;SDS011;29032;56.028;92.904;2023-04-08T17:58:50;5.97;;;2.00;;
42886;SDS011;29032;56.028;92.904;2023-04-08T18:03:52;4.37;;;2.13;;
42886;SDS011;29032;56.028;92.904;2023-04-08T18:08:54;3.57;;;1.87;;
42886;SDS011;29032;56.028;92.904;2023-04-08T18:13:58;4.17;;;2.00;;
42886;SDS011;29032;56.028;92.904;2023-04-08T18:19:00;2.63;;;1.80;;
42886;SDS011;29032;56.028;92.904;2023-04-08T18:24:02;3.93;;;1.90;;
42886;SDS011;29032;56.028;92.904;2023-04-08T18:29:05;3.30;;;1.90;;
42886;SDS011;29032;56.028;92.904;2023-04-08T18:34:26;7.10;;;2.10;;
42886;SDS011;29032;56.028;92.904;2023-04-08T18:39:28;4.17;;;2.20;;
42886;SDS011;29032;56.028;92.904;2023-04-08T18:44:31;5.70;;;2.30;;
42886;SDS011;29032;56.028;92.904;2023-04-08T18:49:34;6.67;;;2.70;;
42886;SDS011;29032;56.028;92.904;2023-04-08T18:54:36;6.27;;;2.70;;
42886;SDS011;29032;56.028;92.904;2023-04-08T18:59:40;4.77;;;1.80;;
42886;SDS011;29032;56.028;92.904;2023-04-08T19:04:42;4.37;;;1.90;;
42886;SDS011;29032;56.028;92.904;2023-04-08T19:09:44;4.00;;;1.97;;
42886;SDS011;29032;56.028;92.904;2023-04-08T19:14:47;3.97;;;2.40;;
42886;SDS011;29032;56.028;92.904;2023-04-08T19:19:49;5.37;;;2.13;;
42886;SDS011;29032;56.028;92.904;2023-04-08T19:24:51;3.80;;;1.47;;
42886;SDS011;29032;56.028;92.904;2023-04-08T19:29:55;4.47;;;1.77;;
42886;SDS011;29032;56.028;92.904;2023-04-08T19:34:57;3.20;;;1.63;;
42886;SDS011;29032;56.028;92.904;2023-04-08T19:39:59;4.90;;;1.67;;
42886;SDS011;29032;56.028;92.904;2023-04-08T19:45:03;7.83;;;2.40;;
42886;SDS011;29032;56.028;92.904;2023-04-08T19:50:06;7.50;;;2.37;;
42886;SDS011;29032;56.028;92.904;2023-04-08T19:55:08;3.90;;;2.03;;
42886;SDS011;29032;56.028;92.904;2023-04-08T20:00:30;6.23;;;2.40;;
42886;SDS011;29032;56.028;92.904;2023-04-08T20:05:32;8.67;;;1.90;;
42886;SDS011;29032;56.028;92.904;2023-04-08T20:10:34;5.57;;;1.23;;
42886;SDS011;29032;56.028;92.904;2023-04-08T20:15:38;4.17;;;1.67;;
42886;SDS011;29032;56.028;92.904;2023-04-08T20:20:40;3.63;;;1.50;;
42886;SDS011;29032;56.028;92.904;2023-04-08T20:25:42;5.97;;;1.50;;
42886;SDS011;29032;56.028;92.904;2023-04-08T20:30:46;3.40;;;1.80;;
42886;SDS011;29032;56.028;92.904;2023-04-08T20:35:48;4.80;;;2.17;;
42886;SDS011;29032;56.028;92.904;2023-04-08T20:40:50;2.23;;;1.40;;
42886;SDS011;29032;56.028;92.904;2023-04-08T20:45:53;4.53;;;2.00;;
42886;SDS011;29032;56.028;92.904;2023-04-08T20:50:55;3.50;;;2.83;;
42886;SDS011;29032;56.028;92.904;2023-04-08T20:55:57;2.30;;;1.50;;
42886;SDS011;29032;56.028;92.904;2023-04-08T21:01:19;4.47;;;1.73;;
42886;SDS011;29032;56.028;92.904;2023-04-08T21:06:21;3.77;;;1.60;;
42886;SDS011;29032;56.028;92.904;2023-04-08T21:11:24;5.43;;;1.63;;
42886;SDS011;29032;56.028;92.904;2023-04-08T21:16:27;11.43;;;2.13;;
42886;SDS011;29032;56.028;92.904;2023-04-08T21:21:48;4.87;;;1.60;;
42886;SDS011;29032;56.028;92.904;2023-04-08T21:26:50;5.60;;;2.47;;
42886;SDS011;29032;56.028;92.904;2023-04-08T21:31:53;4.50;;;1.60;;
42886;SDS011;29032;56.028;92.904;2023-04-08T21:36:55;6.07;;;2.23;;
42886;SDS011;29032;56.028;92.904;2023-04-08T21:41:57;2.93;;;1.37;;
42886;SDS011;29032;56.028;92.904;2023-04-08T21:47:01;4.83;;;1.90;;
42886;SDS011;29032;56.028;92.904;2023-04-08T21:52:03;3.87;;;1.57;;
42886;SDS011;29032;56.028;92.904;2023-04-08T21:57:05;2.60;;;2.20;;
42886;SDS011;29032;56.028;92.904;2023-04-08T22:02:09;4.13;;;1.53;;
42886;SDS011;29032;56.028;92.904;2023-04-08T22:07:11;2.60;;;1.87;;
42886;SDS011;29032;56.028;92.904;2023-04-08T22:12:13;6.07;;;1.60;;
42886;SDS011;29032;56.028;92.904;2023-04-08T22:17:17;3.90;;;1.73;;
42886;SDS011;29032;56.028;92.904;2023-04-08T22:22:19;2.03;;;1.70;;
42886;SDS011;29032;56.028;92.904;2023-04-08T22:27:20;2.07;;;1.40;;
42886;SDS011;29032;56.028;92.904;2023-04-08T22:32:24;5.17;;;3.33;;
42886;SDS011;29032;56.028;92.904;2023-04-08T22:37:26;3.97;;;1.73;;
42886;SDS011;29032;56.028;92.904;2023-04-08T22:42:28;2.67;;;1.40;;
42886;SDS011;29032;56.028;92.904;2023-04-08T22:47:32;2.90;;;1.60;;
42886;SDS011;29032;56.028;92.904;2023-04-08T22:52:34;2.20;;;1.53;;
42886;SDS011;29032;56.028;92.904;2023-04-08T22:57:36;3.07;;;1.40;;
42886;SDS011;29032;56.028;92.904;2023-04-08T23:02:39;3.97;;;1.97;;
42886;SDS011;29032;56.028;92.904;2023-04-08T23:07:42;2.83;;;1.50;;
42886;SDS011;29032;56.028;92.904;2023-04-08T23:12:44;6.87;;;1.87;;
42886;SDS011;29032;56.028;92.904;2023-04-08T23:17:48;5.30;;;2.37;;
42886;SDS011;29032;56.028;92.904;2023-04-08T23:22:50;3.80;;;2.50;;
42886;SDS011;29032;56.028;92.904;2023-04-08T23:27:52;2.40;;;1.90;;
42886;SDS011;29032;56.028;92.904;2023-04-08T23:33:14;5.03;;;1.80;;
42886;SDS011;29032;56.028;92.904;2023-04-08T23:38:16;5.73;;;2.03;;
42886;SDS011;29032;56.028;92.904;2023-04-08T23:43:18;4.30;;;1.67;;
42886;SDS011;29032;56.028;92.904;2023-04-08T23:48:21;2.83;;;1.67;;
42886;SDS011;29032;56.028;92.904;2023-04-08T23:53:23;6.30;;;1.70;;
42886;SDS011;29032;56.028;92.904;2023-04-08T23:58:25;6.17;;;2.53;;
